Time;durP1;ratioP1;P1;durP2;ratioP2;P2;SDS_P1;SDS_P2;PMS_P1;PMS_P2;Temp;Humidity;BMP_temperature;BMP_pressure;BME280_temperature;BME280_humidity;BME280_pressure;Samples;Min_cycle;Max_cycle;Signal;HPM_P1;HPM_P2
2021/08/18 00:02:42;0.00;0.00;0.62;0.00;0.00;0.62;2.10;1.90;;;25.20;34.70;;;;;;2257571;61;20394;-50
2021/08/18 00:05:26;0.00;0.00;0.62;0.00;0.00;0.62;2.93;2.40;;;25.20;34.80;;;;;;2257935;61;20359;-49
2021/08/18 00:08:12;0.00;0.00;0.62;0.00;0.00;0.62;2.23;2.03;;;25.20;34.80;;;;;;2257509;61;20434;-50
2021/08/18 00:10:59;0.00;0.00;0.62;0.00;0.00;0.62;2.70;2.50;;;25.20;34.80;;;;;;2257697;61;20358;-52
2021/08/18 00:13:43;0.00;0.00;0.62;0.00;0.00;0.62;2.10;1.80;;;25.20;34.80;;;;;;2257979;61;20356;-49
2021/08/18 00:16:28;0.00;0.00;0.62;0.00;0.00;0.62;2.40;1.90;;;25.20;34.80;;;;;;2257200;61;20801;-51
2021/08/18 00:19:13;0.00;0.00;0.62;0.00;0.00;0.62;2.33;2.00;;;25.20;34.80;;;;;;2257816;61;20385;-50
2021/08/18 00:21:58;0.00;0.00;0.62;0.00;0.00;0.62;1.90;1.70;;;25.20;34.80;;;;;;2257839;61;20367;-52
2021/08/18 00:24:43;0.00;0.00;0.62;0.00;0.00;0.62;2.20;2.00;;;25.20;35.60;;;;;;2257584;61;20750;-51
2021/08/18 00:27:28;0.00;0.00;0.62;0.00;0.00;0.62;1.80;1.70;;;25.20;34.80;;;;;;2257855;61;20417;-52
2021/08/18 00:30:14;0.00;0.00;0.62;0.00;0.00;0.62;2.63;2.43;;;25.20;34.80;;;;;;2257526;61;20367;-50
2021/08/18 00:32:59;0.00;0.00;0.62;0.00;0.00;0.62;1.70;1.60;;;25.20;34.80;;;;;;2257795;61;20753;-49
2021/08/18 00:35:43;0.00;0.00;0.62;0.00;0.00;0.62;1.87;1.70;;;25.20;34.90;;;;;;2257735;61;20402;-49
2021/08/18 00:38:28;0.00;0.00;0.62;0.00;0.00;0.62;1.90;1.40;;;25.20;34.90;;;;;;2257299;61;20414;-53
2021/08/18 00:41:13;0.00;0.00;0.62;0.00;0.00;0.62;2.10;1.70;;;25.20;34.90;;;;;;2257858;61;20362;-48
2021/08/18 00:44:00;0.00;0.00;0.62;0.00;0.00;0.62;2.10;1.90;;;25.20;34.90;;;;;;2257740;61;20366;-51
2021/08/18 00:46:49;0.00;0.00;0.62;0.00;0.00;0.62;2.30;1.50;;;25.20;34.90;;;;;;2257542;61;20487;-50
2021/08/18 00:49:34;0.00;0.00;0.62;0.00;0.00;0.62;1.97;1.80;;;25.20;34.90;;;;;;2257861;61;20455;-52
2021/08/18 00:52:19;0.00;0.00;0.62;0.00;0.00;0.62;1.87;1.67;;;25.20;34.90;;;;;;2257404;61;20579;-53
2021/08/18 00:55:08;0.00;0.00;0.62;0.00;0.00;0.62;1.80;1.43;;;25.20;34.90;;;;;;2257734;61;20482;-55
2021/08/18 00:57:55;0.00;0.00;0.62;0.00;0.00;0.62;1.90;1.70;;;25.20;34.90;;;;;;2257041;61;20391;-53
2021/08/18 01:00:41;0.00;0.00;0.62;0.00;0.00;0.62;1.90;1.57;;;25.20;34.90;;;;;;2257529;61;20355;-52
2021/08/18 01:03:28;0.00;0.00;0.62;0.00;0.00;0.62;1.90;1.60;;;25.20;35.00;;;;;;2257853;61;20470;-53
2021/08/18 01:06:13;0.00;0.00;0.62;0.00;0.00;0.62;1.90;1.70;;;25.20;35.00;;;;;;2257635;61;20359;-54
2021/08/18 01:08:58;0.00;0.00;0.62;0.00;0.00;0.62;1.90;1.43;;;25.20;35.00;;;;;;2257409;61;20430;-54
2021/08/18 01:11:47;0.00;0.00;0.62;0.00;0.00;0.62;1.90;1.20;;;25.20;35.00;;;;;;2257651;61;20734;-49
2021/08/18 01:14:31;0.00;0.00;0.62;0.00;0.00;0.62;1.70;1.50;;;25.20;35.00;;;;;;2257414;61;20359;-51
2021/08/18 01:17:17;0.00;0.00;0.62;0.00;0.00;0.62;1.60;1.43;;;25.20;35.10;;;;;;2257341;61;20666;-48
2021/08/18 01:20:03;0.00;0.00;0.62;0.00;0.00;0.62;2.00;1.20;;;25.20;35.10;;;;;;2257606;61;20366;-51
2021/08/18 01:22:49;0.00;0.00;0.62;0.00;0.00;0.62;1.80;1.50;;;25.20;35.10;;;;;;2257397;61;20398;-50
2021/08/18 01:25:35;0.00;0.00;0.62;0.00;0.00;0.62;1.70;1.30;;;25.30;35.20;;;;;;2257652;61;20362;-52
2021/08/18 01:28:24;0.00;0.00;0.62;0.00;0.00;0.62;1.50;1.27;;;25.30;35.20;;;;;;2257257;61;20395;-49
2021/08/18 01:31:09;0.00;0.00;0.62;0.00;0.00;0.62;1.70;1.50;;;25.30;35.20;;;;;;2257424;61;20367;-53
2021/08/18 01:33:57;0.00;0.00;0.62;0.00;0.00;0.62;1.60;1.50;;;25.30;35.20;;;;;;2257676;61;20394;-50
2021/08/18 01:36:41;0.00;0.00;0.62;0.00;0.00;0.62;1.77;1.57;;;25.30;35.20;;;;;;2257070;61;20425;-53
2021/08/18 01:39:26;0.00;0.00;0.62;0.00;0.00;0.62;1.73;1.50;;;25.30;35.20;;;;;;2257623;61;20394;-51
2021/08/18 01:42:10;0.00;0.00;0.62;0.00;0.00;0.62;1.60;1.20;;;25.30;35.20;;;;;;2257555;61;20398;-51
2021/08/18 01:44:57;0.00;0.00;0.62;0.00;0.00;0.62;1.90;1.17;;;25.30;35.20;;;;;;2257315;61;20675;-50
2021/08/18 01:47:41;0.00;0.00;0.62;0.00;0.00;0.62;1.40;1.20;;;25.30;35.20;;;;;;2257379;61;20773;-48
2021/08/18 01:50:26;0.00;0.00;0.62;0.00;0.00;0.62;1.77;1.40;;;25.30;35.20;;;;;;2257453;61;20409;-50
2021/08/18 01:53:15;0.00;0.00;0.62;0.00;0.00;0.62;1.70;1.57;;;25.30;35.20;;;;;;2257253;61;20432;-49
2021/08/18 01:56:03;0.00;0.00;0.62;0.00;0.00;0.62;2.13;1.70;;;25.30;35.20;;;;;;2257462;61;20402;-51
2021/08/18 01:58:51;0.00;0.00;0.62;0.00;0.00;0.62;1.87;1.33;;;25.30;35.90;;;;;;2257276;61;20418;-50
2021/08/18 02:01:37;0.00;0.00;0.62;0.00;0.00;0.62;1.57;1.40;;;25.30;35.20;;;;;;2257616;61;20367;-52
2021/08/18 02:04:22;0.00;0.00;0.62;0.00;0.00;0.62;1.50;1.20;;;25.30;35.20;;;;;;2257463;61;20730;-51
2021/08/18 02:07:07;0.00;0.00;0.62;0.00;0.00;0.62;1.50;1.40;;;25.30;35.20;;;;;;2257175;61;20596;-51
2021/08/18 02:09:51;0.00;0.00;0.62;0.00;0.00;0.62;1.50;1.30;;;25.30;35.20;;;;;;2257450;61;20455;-50
2021/08/18 02:12:37;0.00;0.00;0.62;0.00;0.00;0.62;1.87;1.50;;;25.30;35.20;;;;;;2257482;61;20751;-51
2021/08/18 02:15:25;0.00;0.00;0.62;0.00;0.00;0.62;2.43;1.50;;;25.30;35.20;;;;;;2257214;61;20361;-50
2021/08/18 02:18:15;0.00;0.00;0.62;0.00;0.00;0.62;3.80;1.23;;;25.40;35.30;;;;;;2257015;61;20763;-50
2021/08/18 02:21:00;0.00;0.00;0.62;0.00;0.00;0.62;1.40;1.17;;;25.30;35.30;;;;;;2257399;61;20359;-54
2021/08/18 02:23:45;0.00;0.00;0.62;0.00;0.00;0.62;2.27;1.70;;;25.30;36.00;;;;;;2257701;61;20386;-49
2021/08/18 02:26:30;0.00;0.00;0.62;0.00;0.00;0.62;1.80;1.30;;;25.30;35.30;;;;;;2257352;61;20372;-51
2021/08/18 02:29:15;0.00;0.00;0.62;0.00;0.00;0.62;1.60;1.30;;;25.30;35.30;;;;;;2257133;61;20374;-49
2021/08/18 02:32:00;0.00;0.00;0.62;0.00;0.00;0.62;1.60;1.47;;;25.40;35.40;;;;;;2257490;61;20378;-49
2021/08/18 02:34:46;0.00;0.00;0.62;0.00;0.00;0.62;1.97;1.50;;;25.30;35.40;;;;;;2257325;61;20467;-50
2021/08/18 02:37:31;0.00;0.00;0.62;0.00;0.00;0.62;1.73;1.40;;;25.30;35.40;;;;;;2256530;61;20390;-51
2021/08/18 02:40:19;0.00;0.00;0.62;0.00;0.00;0.62;1.40;1.10;;;25.30;35.40;;;;;;2257602;61;20406;-50
2021/08/18 02:43:05;0.00;0.00;0.62;0.00;0.00;0.62;1.60;1.30;;;25.40;35.40;;;;;;2258110;61;20379;-51
2021/08/18 02:45:50;0.00;0.00;0.62;0.00;0.00;0.62;1.53;1.30;;;25.40;35.40;;;;;;2258482;61;20370;-50
2021/08/18 02:48:34;0.00;0.00;0.62;0.00;0.00;0.62;1.73;1.30;;;25.40;35.50;;;;;;2257837;61;20393;-50
2021/08/18 02:51:20;0.00;0.00;0.62;0.00;0.00;0.62;1.60;1.30;;;25.40;35.40;;;;;;2257895;61;20405;-49
2021/08/18 02:54:05;0.00;0.00;0.62;0.00;0.00;0.62;1.60;1.03;;;25.40;35.50;;;;;;2258076;61;20730;-50
2021/08/18 02:56:50;0.00;0.00;0.62;0.00;0.00;0.62;1.60;1.37;;;25.40;36.10;;;;;;2257730;61;20474;-51
2021/08/18 02:59:35;0.00;0.00;0.62;0.00;0.00;0.62;2.17;1.10;;;25.40;35.50;;;;;;2257795;61;20406;-48
2021/08/18 03:02:20;0.00;0.00;0.62;0.00;0.00;0.62;1.83;1.13;;;25.40;35.50;;;;;;2258026;61;20413;-50
2021/08/18 03:05:07;0.00;0.00;0.62;0.00;0.00;0.62;1.87;1.20;;;25.40;35.50;;;;;;2258172;61;20470;-50
2021/08/18 03:07:53;0.00;0.00;0.62;0.00;0.00;0.62;1.50;1.13;;;25.40;35.50;;;;;;2257998;61;20433;-49
2021/08/18 03:10:37;0.00;0.00;0.62;0.00;0.00;0.62;1.50;1.20;;;25.40;35.50;;;;;;2258033;61;20366;-50
2021/08/18 03:13:22;0.00;0.00;0.62;0.00;0.00;0.62;1.37;1.00;;;25.40;35.50;;;;;;2257899;61;20367;-50
2021/08/18 03:16:07;0.00;0.00;0.62;0.00;0.00;0.62;1.57;1.20;;;25.40;35.50;;;;;;2257805;61;20367;-51
2021/08/18 03:18:51;0.00;0.00;0.62;0.00;0.00;0.62;1.53;1.20;;;25.40;35.50;;;;;;2257871;61;20782;-51
2021/08/18 03:21:36;0.00;0.00;0.62;0.00;0.00;0.62;1.60;1.20;;;25.40;35.50;;;;;;2257846;61;20718;-50
2021/08/18 03:24:22;0.00;0.00;0.62;0.00;0.00;0.62;2.47;1.50;;;25.40;35.50;;;;;;2257898;61;20358;-49
2021/08/18 03:27:07;0.00;0.00;0.62;0.00;0.00;0.62;2.00;1.60;;;25.40;35.50;;;;;;2257930;61;20486;-50
2021/08/18 03:29:52;0.00;0.00;0.62;0.00;0.00;0.62;1.90;1.50;;;25.40;35.60;;;;;;2257748;61;20424;-50
2021/08/18 03:32:36;0.00;0.00;0.62;0.00;0.00;0.62;1.90;1.20;;;25.40;35.60;;;;;;2258035;61;20363;-50
2021/08/18 03:35:21;0.00;0.00;0.62;0.00;0.00;0.62;1.93;1.73;;;25.40;35.60;;;;;;2257970;61;20359;-48
2021/08/18 03:38:06;0.00;0.00;0.62;0.00;0.00;0.62;2.07;1.30;;;25.40;35.60;;;;;;2257561;61;20390;-51
2021/08/18 03:40:54;0.00;0.00;0.62;0.00;0.00;0.62;2.83;1.50;;;25.40;35.60;;;;;;2258011;61;20374;-51
2021/08/18 03:43:39;0.00;0.00;0.62;0.00;0.00;0.62;1.70;1.40;;;25.40;35.60;;;;;;2257677;61;20482;-49
2021/08/18 03:46:23;0.00;0.00;0.62;0.00;0.00;0.62;2.97;1.60;;;25.40;35.60;;;;;;2257912;61;20355;-50
2021/08/18 03:49:08;0.00;0.00;0.62;0.00;0.00;0.62;1.73;1.50;;;25.40;35.60;;;;;;2257777;61;20378;-50
2021/08/18 03:51:53;0.00;0.00;0.62;0.00;0.00;0.62;1.70;1.40;;;25.40;35.60;;;;;;2257448;61;20406;-51
2021/08/18 03:54:37;0.00;0.00;0.62;0.00;0.00;0.62;1.77;1.57;;;25.40;36.30;;;;;;2258013;61;20726;-49
2021/08/18 03:57:24;0.00;0.00;0.62;0.00;0.00;0.62;2.00;1.60;;;25.40;35.60;;;;;;2257387;61;20799;-51
2021/08/18 04:00:13;0.00;0.00;0.62;0.00;0.00;0.62;1.70;1.40;;;25.40;35.60;;;;;;2257746;61;20367;-49
2021/08/18 04:02:58;0.00;0.00;0.62;0.00;0.00;0.62;2.27;1.80;;;25.40;35.60;;;;;;2257893;61;20394;-50
2021/08/18 04:05:43;0.00;0.00;0.62;0.00;0.00;0.62;2.23;1.67;;;25.40;35.60;;;;;;2257578;61;20435;-49
2021/08/18 04:08:27;0.00;0.00;0.62;0.00;0.00;0.62;1.88;1.60;;;25.40;35.60;;;;;;2257567;61;20360;-48
2021/08/18 04:11:12;0.00;0.00;0.62;0.00;0.00;0.62;1.83;1.23;;;25.40;35.70;;;;;;2257843;61;20238;-52
2021/08/18 04:13:58;0.00;0.00;0.62;0.00;0.00;0.62;1.80;1.40;;;25.40;35.60;;;;;;2257533;61;20445;-55
2021/08/18 04:16:42;0.00;0.00;0.62;0.00;0.00;0.62;1.80;1.43;;;25.40;35.60;;;;;;2257641;61;20370;-55
2021/08/18 04:19:27;0.00;0.00;0.62;0.00;0.00;0.62;1.80;1.47;;;25.40;35.60;;;;;;2257631;61;20390;-53
2021/08/18 04:22:12;0.00;0.00;0.62;0.00;0.00;0.62;1.90;1.40;;;25.40;35.60;;;;;;2257851;61;20391;-52
2021/08/18 04:24:56;0.00;0.00;0.62;0.00;0.00;0.62;1.97;1.63;;;25.40;35.60;;;;;;2257865;61;20459;-51
2021/08/18 04:27:41;0.00;0.00;0.62;0.00;0.00;0.62;1.80;1.57;;;25.40;35.70;;;;;;2257426;61;20359;-54
2021/08/18 04:30:27;0.00;0.00;0.62;0.00;0.00;0.62;2.00;1.60;;;25.40;35.60;;;;;;2257819;61;20355;-52
2021/08/18 04:33:12;0.00;0.00;0.62;0.00;0.00;0.62;1.60;1.33;;;25.40;35.70;;;;;;2257776;61;20370;-52
2021/08/18 04:35:57;0.00;0.00;0.62;0.00;0.00;0.62;2.00;1.77;;;25.40;35.70;;;;;;2257376;61;20358;-50
2021/08/18 04:38:41;0.00;0.00;0.62;0.00;0.00;0.62;3.07;2.10;;;25.40;35.70;;;;;;2257691;61;20441;-51
2021/08/18 04:41:27;0.00;0.00;0.62;0.00;0.00;0.62;1.83;1.60;;;25.40;35.70;;;;;;2257703;61;20390;-50
2021/08/18 04:44:11;0.00;0.00;0.62;0.00;0.00;0.62;1.80;1.50;;;25.40;35.70;;;;;;2258093;61;20362;-51
2021/08/18 04:46:57;0.00;0.00;0.62;0.00;0.00;0.62;1.50;1.40;;;25.40;35.70;;;;;;2257645;61;20738;-50
2021/08/18 04:49:42;0.00;0.00;0.62;0.00;0.00;0.62;2.00;1.63;;;25.40;35.70;;;;;;2257090;61;20591;-50
2021/08/18 04:52:26;0.00;0.00;0.62;0.00;0.00;0.62;1.93;1.57;;;25.40;35.70;;;;;;2257795;61;20615;-48
2021/08/18 04:55:13;0.00;0.00;0.62;0.00;0.00;0.62;2.07;1.87;;;25.40;35.70;;;;;;2257595;61;20802;-49
2021/08/18 04:57:57;0.00;0.00;0.62;0.00;0.00;0.62;2.27;1.50;;;25.40;35.80;;;;;;2257300;61;20395;-49
2021/08/18 05:00:42;0.00;0.00;0.62;0.00;0.00;0.62;1.93;1.60;;;25.40;35.80;;;;;;2257720;61;20386;-50
2021/08/18 05:03:28;0.00;0.00;0.62;0.00;0.00;0.62;2.07;1.50;;;25.40;35.80;;;;;;2257597;61;20363;-51
2021/08/18 05:06:12;0.00;0.00;0.62;0.00;0.00;0.62;1.90;1.60;;;25.40;35.80;;;;;;2257662;61;20363;-49
2021/08/18 05:08:57;0.00;0.00;0.62;0.00;0.00;0.62;2.37;2.10;;;25.40;35.80;;;;;;2257264;61;20382;-51
2021/08/18 05:11:41;0.00;0.00;0.62;0.00;0.00;0.62;1.70;1.50;;;25.40;35.80;;;;;;2257517;61;20359;-51
2021/08/18 05:14:26;0.00;0.00;0.62;0.00;0.00;0.62;2.60;2.40;;;25.40;35.80;;;;;;2257312;61;20368;-58
2021/08/18 05:17:11;0.00;0.00;0.62;0.00;0.00;0.62;2.40;2.20;;;25.40;35.90;;;;;;2256590;61;20418;-52
2021/08/18 05:19:57;0.00;0.00;0.62;0.00;0.00;0.62;2.30;2.00;;;25.40;35.90;;;;;;2257240;61;20379;-51
2021/08/18 05:22:42;0.00;0.00;0.62;0.00;0.00;0.62;2.50;2.30;;;25.40;36.00;;;;;;2257550;61;20498;-53
2021/08/18 05:25:26;0.00;0.00;0.62;0.00;0.00;0.62;2.27;2.03;;;25.40;36.00;;;;;;2257303;61;20383;-53
2021/08/18 05:28:13;0.00;0.00;0.62;0.00;0.00;0.62;2.10;1.90;;;25.40;36.00;;;;;;2257129;61;20791;-53
2021/08/18 05:30:59;0.00;0.00;0.62;0.00;0.00;0.62;2.20;2.00;;;25.40;36.00;;;;;;2257489;61;20355;-55
2021/08/18 05:33:43;0.00;0.00;0.62;0.00;0.00;0.62;2.13;1.93;;;25.40;36.00;;;;;;2257197;61;20486;-53
2021/08/18 05:36:30;0.00;0.00;0.62;0.00;0.00;0.62;3.90;2.77;;;25.40;36.10;;;;;;2257458;61;20363;-52
2021/08/18 05:39:14;0.00;0.00;0.62;0.00;0.00;0.62;2.10;1.70;;;25.40;36.00;;;;;;2257222;61;20510;-52
2021/08/18 05:41:59;0.00;0.00;0.62;0.00;0.00;0.62;2.53;2.07;;;25.40;36.10;;;;;;2257257;61;20611;-53
2021/08/18 05:44:43;0.00;0.00;0.62;0.00;0.00;0.62;3.20;2.63;;;25.40;36.10;;;;;;2257472;61;20362;-54
2021/08/18 05:47:28;0.00;0.00;0.62;0.00;0.00;0.62;2.20;1.90;;;25.40;36.10;;;;;;2257249;61;20432;-57
2021/08/18 05:50:12;0.00;0.00;0.62;0.00;0.00;0.62;2.43;2.23;;;25.40;36.10;;;;;;2257112;61;20363;-52
2021/08/18 05:52:58;0.00;0.00;0.62;0.00;0.00;0.62;2.37;1.87;;;25.40;36.10;;;;;;2257556;61;20362;-55
2021/08/18 05:55:43;0.00;0.00;0.62;0.00;0.00;0.62;2.30;2.10;;;25.40;36.20;;;;;;2257047;61;20370;-55
2021/08/18 05:58:28;0.00;0.00;0.62;0.00;0.00;0.62;2.10;1.80;;;25.50;36.20;;;;;;2257205;61;20471;-50
2021/08/18 06:01:12;0.00;0.00;0.62;0.00;0.00;0.62;2.50;1.77;;;25.50;36.20;;;;;;2257314;61;20366;-56
2021/08/18 06:03:57;0.00;0.00;0.62;0.00;0.00;0.62;2.47;1.97;;;25.50;36.20;;;;;;2257188;61;20358;-55
2021/08/18 06:06:42;0.00;0.00;0.62;0.00;0.00;0.62;2.20;2.00;;;25.50;36.20;;;;;;2257053;61;20362;-55
2021/08/18 06:09:29;0.00;0.00;0.62;0.00;0.00;0.62;1.67;1.50;;;25.50;36.20;;;;;;2257194;61;20378;-54
2021/08/18 06:12:14;0.00;0.00;0.62;0.00;0.00;0.62;2.80;2.00;;;25.50;36.20;;;;;;2256641;61;20514;-54
2021/08/18 06:14:59;0.00;0.00;0.62;0.00;0.00;0.62;2.03;1.80;;;25.50;36.10;;;;;;2257367;61;20359;-54
2021/08/18 06:17:46;0.00;0.00;0.62;0.00;0.00;0.62;1.97;1.77;;;25.50;36.10;;;;;;2257030;61;20382;-52
2021/08/18 06:20:31;0.00;0.00;0.62;0.00;0.00;0.62;2.20;2.00;;;25.50;36.10;;;;;;2257430;61;20724;-51
2021/08/18 06:23:20;0.00;0.00;0.62;0.00;0.00;0.62;4.30;1.90;;;25.60;36.20;;;;;;2257214;61;20875;-51
2021/08/18 06:26:06;0.00;0.00;0.62;0.00;0.00;0.62;3.33;2.07;;;25.60;36.10;;;;;;2256934;61;20362;-56
2021/08/18 06:28:50;0.00;0.00;0.62;0.00;0.00;0.62;2.30;2.10;;;25.60;36.10;;;;;;2257295;61;20378;-52
2021/08/18 06:31:35;0.00;0.00;0.62;0.00;0.00;0.62;2.33;2.10;;;25.60;36.10;;;;;;2257195;61;20367;-53
2021/08/18 06:34:19;0.00;0.00;0.62;0.00;0.00;0.62;3.00;2.03;;;25.60;36.10;;;;;;2256389;61;20362;-55
2021/08/18 06:37:05;0.00;0.00;0.62;0.00;0.00;0.62;2.70;1.87;;;25.60;36.10;;;;;;2257248;61;20467;-57
2021/08/18 06:39:50;0.00;0.00;0.62;0.00;0.00;0.62;2.47;2.23;;;25.60;36.20;;;;;;2257244;61;20433;-55
2021/08/18 06:42:39;0.00;0.00;0.62;0.00;0.00;0.62;2.23;1.87;;;25.60;36.10;;;;;;2257288;61;20362;-52
2021/08/18 06:45:24;0.00;0.00;0.62;0.00;0.00;0.62;2.53;2.07;;;25.60;36.10;;;;;;2257076;61;20461;-53
2021/08/18 06:48:09;0.00;0.00;0.62;0.00;0.00;0.62;2.43;1.83;;;25.60;36.10;;;;;;2256661;61;20382;-52
2021/08/18 06:50:54;0.00;0.00;0.62;0.00;0.00;0.62;2.57;1.90;;;25.70;36.20;;;;;;2257355;61;20363;-53
2021/08/18 06:53:38;0.00;0.00;0.62;0.00;0.00;0.62;2.10;1.90;;;25.70;36.20;;;;;;2257181;61;20406;-51
2021/08/18 06:56:23;0.00;0.00;0.62;0.00;0.00;0.62;3.20;2.20;;;25.70;36.20;;;;;;2256913;61;20406;-51
2021/08/18 06:59:09;0.00;0.00;0.62;0.00;0.00;0.62;2.57;2.07;;;25.70;36.10;;;;;;2257587;61;20381;-54
2021/08/18 07:01:53;0.00;0.00;0.62;0.00;0.00;0.62;2.33;2.13;;;25.70;36.10;;;;;;2257103;61;20366;-51
2021/08/18 07:04:38;0.00;0.00;0.62;0.00;0.00;0.62;2.87;1.97;;;25.70;36.10;;;;;;2257037;61;20366;-51
2021/08/18 07:07:22;0.00;0.00;0.62;0.00;0.00;0.62;2.27;1.70;;;25.70;36.10;;;;;;2257036;61;20494;-53
2021/08/18 07:10:08;0.00;0.00;0.62;0.00;0.00;0.62;2.70;2.10;;;25.70;36.10;;;;;;2256826;61;20386;-57
2021/08/18 07:12:52;0.00;0.00;0.62;0.00;0.00;0.62;2.30;1.60;;;25.70;36.10;;;;;;2257502;61;20556;-54
2021/08/18 07:15:38;0.00;0.00;0.62;0.00;0.00;0.62;2.50;2.20;;;25.70;36.00;;;;;;2257058;61;20734;-52
2021/08/18 07:18:23;0.00;0.00;0.62;0.00;0.00;0.62;2.40;2.00;;;25.70;36.00;;;;;;2256564;61;20395;-52
2021/08/18 07:21:08;0.00;0.00;0.62;0.00;0.00;0.62;2.80;2.10;;;25.70;36.00;;;;;;2257416;61;20394;-54
2021/08/18 07:23:55;0.00;0.00;0.62;0.00;0.00;0.62;1.80;1.70;;;25.70;36.00;;;;;;2256917;61;20433;-53
2021/08/18 07:26:40;0.00;0.00;0.62;0.00;0.00;0.62;2.80;1.80;;;25.70;36.00;;;;;;2257025;61;20359;-51
2021/08/18 07:29:24;0.00;0.00;0.62;0.00;0.00;0.62;2.30;2.07;;;25.70;36.00;;;;;;2257953;61;20442;-55
2021/08/18 07:32:10;0.00;0.00;0.62;0.00;0.00;0.62;2.23;2.03;;;25.70;36.00;;;;;;2257498;61;20378;-54
2021/08/18 07:34:55;0.00;0.00;0.62;0.00;0.00;0.62;2.77;2.00;;;25.70;36.00;;;;;;2258031;61;20579;-54
2021/08/18 07:37:39;0.00;0.00;0.62;0.00;0.00;0.62;2.50;2.00;;;25.70;35.90;;;;;;2257417;61;20394;-54
2021/08/18 07:40:25;0.00;0.00;0.62;0.00;0.00;0.62;2.10;1.90;;;25.70;35.90;;;;;;2257481;61;20363;-52
2021/08/18 07:43:09;0.00;0.00;0.62;0.00;0.00;0.62;3.20;2.20;;;25.70;35.90;;;;;;2257998;61;20474;-55
2021/08/18 07:45:54;0.00;0.00;0.62;0.00;0.00;0.62;2.23;1.90;;;25.70;35.90;;;;;;2257542;61;20764;-56
2021/08/18 07:48:40;0.00;0.00;0.62;0.00;0.00;0.62;2.63;2.07;;;25.80;36.00;;;;;;2257414;61;20379;-55
2021/08/18 07:51:25;0.00;0.00;0.62;0.00;0.00;0.62;3.10;2.07;;;25.80;36.00;;;;;;2257778;61;20461;-55
2021/08/18 07:54:10;0.00;0.00;0.62;0.00;0.00;0.62;2.50;2.00;;;25.80;36.00;;;;;;2257416;61;20742;-54
2021/08/18 07:56:54;0.00;0.00;0.62;0.00;0.00;0.62;3.40;2.10;;;25.80;36.00;;;;;;2257740;61;20390;-55
2021/08/18 07:59:39;0.00;0.00;0.62;0.00;0.00;0.62;2.30;1.80;;;25.80;35.90;;;;;;2257393;61;20379;-52
2021/08/18 08:02:23;0.00;0.00;0.62;0.00;0.00;0.62;2.53;1.90;;;25.80;35.90;;;;;;2257407;61;20731;-53
2021/08/18 08:05:10;0.00;0.00;0.62;0.00;0.00;0.62;2.43;2.23;;;25.80;35.90;;;;;;2257924;61;20363;-54
2021/08/18 08:07:55;0.00;0.00;0.62;0.00;0.00;0.62;2.43;1.87;;;25.80;35.90;;;;;;2257401;61;20383;-52
2021/08/18 08:10:39;0.00;0.00;0.62;0.00;0.00;0.62;2.30;2.10;;;25.80;35.90;;;;;;2257459;61;20451;-56
2021/08/18 08:13:24;0.00;0.00;0.62;0.00;0.00;0.62;3.13;2.20;;;25.80;35.80;;;;;;2257799;61;20784;-52
2021/08/18 08:16:08;0.00;0.00;0.62;0.00;0.00;0.62;2.47;2.03;;;25.80;35.80;;;;;;2257582;61;20378;-54
2021/08/18 08:18:53;0.00;0.00;0.62;0.00;0.00;0.62;2.53;1.70;;;25.80;35.80;;;;;;2257649;61;20398;-53
2021/08/18 08:21:39;0.00;0.00;0.62;0.00;0.00;0.62;2.93;1.67;;;25.80;35.80;;;;;;2257493;61;20723;-56
2021/08/18 08:24:23;0.00;0.00;0.62;0.00;0.00;0.62;2.20;1.70;;;25.80;35.80;;;;;;2257393;61;20543;-50
2021/08/18 08:27:08;0.00;0.00;0.62;0.00;0.00;0.62;3.27;1.70;;;25.90;36.60;;;;;;2257756;61;20363;-56
2021/08/18 08:29:52;0.00;0.00;0.62;0.00;0.00;0.62;3.27;2.20;;;25.90;35.90;;;;;;2257443;61;20602;-52
2021/08/18 08:32:38;0.00;0.00;0.62;0.00;0.00;0.62;2.60;2.20;;;25.90;35.80;;;;;;2257339;61;20382;-51
2021/08/18 08:35:22;0.00;0.00;0.62;0.00;0.00;0.62;2.57;2.37;;;25.90;35.80;;;;;;2257662;61;20583;-51
2021/08/18 08:38:08;0.00;0.00;0.62;0.00;0.00;0.62;2.90;2.50;;;25.90;35.80;;;;;;2257336;61;20398;-53
2021/08/18 08:40:53;0.00;0.00;0.62;0.00;0.00;0.62;2.67;1.90;;;25.90;35.70;;;;;;2257539;61;20367;-50
2021/08/18 08:43:40;0.00;0.00;0.62;0.00;0.00;0.62;3.37;1.87;;;25.90;35.60;;;;;;2257434;61;20496;-51
2021/08/18 08:46:24;0.00;0.00;0.62;0.00;0.00;0.62;2.67;1.97;;;25.90;35.60;;;;;;2257421;61;20607;-52
2021/08/18 08:49:09;0.00;0.00;0.62;0.00;0.00;0.62;2.20;1.77;;;26.00;36.40;;;;;;2257635;61;20387;-53
2021/08/18 08:51:55;0.00;0.00;0.62;0.00;0.00;0.62;2.40;1.93;;;25.90;35.70;;;;;;2257526;61;20470;-50
2021/08/18 08:54:43;0.00;0.00;0.62;0.00;0.00;0.62;2.20;1.90;;;25.90;35.70;;;;;;2257344;61;20382;-53
2021/08/18 08:57:28;0.00;0.00;0.62;0.00;0.00;0.62;2.60;1.70;;;26.00;35.70;;;;;;2257513;61;20371;-55
2021/08/18 09:00:13;0.00;0.00;0.62;0.00;0.00;0.62;2.30;2.10;;;26.00;35.60;;;;;;2257691;61;20397;-57
2021/08/18 09:03:12;0.00;0.00;0.62;0.00;0.00;0.62;3.00;2.03;;;26.00;35.60;;;;;;2257274;61;20363;-56
2021/08/18 09:06:04;0.00;0.00;0.62;0.00;0.00;0.62;5.13;1.93;;;26.00;35.70;;;;;;2257392;61;20589;-51
2021/08/18 09:08:51;0.00;0.00;0.62;0.00;0.00;0.62;4.50;2.90;;;26.00;35.60;;;;;;2257031;61;20573;-56
2021/08/18 09:11:36;0.00;0.00;0.62;0.00;0.00;0.62;2.50;1.87;;;26.00;35.70;;;;;;2257790;61;20394;-59
2021/08/18 09:14:27;0.00;0.00;0.62;0.00;0.00;0.62;3.33;2.50;;;26.00;35.60;;;;;;2257423;61;20835;-51
2021/08/18 09:17:34;0.00;0.00;0.62;0.00;0.00;0.62;3.30;1.80;;;26.00;35.60;;;;;;2256924;61;20462;-51
2021/08/18 09:20:21;0.00;0.00;0.62;0.00;0.00;0.62;2.97;2.30;;;26.00;35.60;;;;;;2257337;61;20479;-50
2021/08/18 09:23:09;0.00;0.00;0.62;0.00;0.00;0.62;1.97;1.70;;;26.00;35.60;;;;;;2257047;61;20600;-50
2021/08/18 09:25:53;0.00;0.00;0.62;0.00;0.00;0.62;2.37;1.70;;;26.00;35.60;;;;;;2257633;61;20359;-54
2021/08/18 09:28:39;0.00;0.00;0.62;0.00;0.00;0.62;3.03;1.60;;;26.10;35.60;;;;;;2257145;61;20422;-53
2021/08/18 09:31:24;0.00;0.00;0.62;0.00;0.00;0.62;2.67;2.00;;;26.00;35.60;;;;;;2257039;61;20367;-52
2021/08/18 09:34:10;0.00;0.00;0.62;0.00;0.00;0.62;3.93;2.00;;;26.00;35.50;;;;;;2257647;61;20715;-50
2021/08/18 09:37:10;0.00;0.00;0.62;0.00;0.00;0.62;2.13;1.87;;;26.10;35.50;;;;;;2256957;61;20358;-50
2021/08/18 09:39:55;0.00;0.00;0.62;0.00;0.00;0.62;3.20;1.90;;;26.00;35.30;;;;;;2257084;61;20379;-52
2021/08/18 09:42:39;0.00;0.00;0.62;0.00;0.00;0.62;3.30;2.30;;;26.00;35.40;;;;;;2257569;61;20731;-53
2021/08/18 09:45:31;0.00;0.00;0.62;0.00;0.00;0.62;3.10;2.50;;;26.00;35.40;;;;;;2257145;61;20359;-50
2021/08/18 09:48:18;0.00;0.00;0.62;0.00;0.00;0.62;2.93;1.80;;;26.00;35.30;;;;;;2257352;61;20417;-51
2021/08/18 09:51:04;0.00;0.00;0.62;0.00;0.00;0.62;3.60;2.37;;;26.00;35.30;;;;;;2256971;61;20401;-55
2021/08/18 09:53:49;0.00;0.00;0.62;0.00;0.00;0.62;2.20;1.83;;;26.00;35.40;;;;;;2257057;61;20367;-54
2021/08/18 09:56:41;0.00;0.00;0.62;0.00;0.00;0.62;2.63;1.80;;;26.10;35.50;;;;;;2257482;61;20715;-53
2021/08/18 09:59:27;0.00;0.00;0.62;0.00;0.00;0.62;2.30;2.00;;;26.10;35.40;;;;;;2257237;61;20383;-53
2021/08/18 10:02:13;0.00;0.00;0.62;0.00;0.00;0.62;2.97;2.13;;;26.10;35.40;;;;;;2257121;61;20367;-52
2021/08/18 10:04:59;0.00;0.00;0.62;0.00;0.00;0.62;2.30;2.10;;;26.00;35.20;;;;;;2257460;61;20692;-55
2021/08/18 10:07:44;0.00;0.00;0.62;0.00;0.00;0.62;2.17;1.80;;;26.10;35.30;;;;;;2257000;61;20355;-52
2021/08/18 10:10:29;0.00;0.00;0.62;0.00;0.00;0.62;2.73;2.30;;;26.10;36.00;;;;;;2257439;61;20579;-51
2021/08/18 10:13:15;0.00;0.00;0.62;0.00;0.00;0.62;2.90;2.43;;;26.00;35.20;;;;;;2257205;61;20371;-51
2021/08/18 10:16:02;0.00;0.00;0.62;0.00;0.00;0.62;1.90;1.70;;;26.00;35.20;;;;;;2256976;61;20502;-51
2021/08/18 10:18:50;0.00;0.00;0.62;0.00;0.00;0.62;3.37;2.60;;;26.10;35.30;;;;;;2257259;61;20394;-51
2021/08/18 10:21:34;0.00;0.00;0.62;0.00;0.00;0.62;2.37;2.17;;;26.10;35.20;;;;;;2257225;61;20718;-51
2021/08/18 10:24:30;0.00;0.00;0.62;0.00;0.00;0.62;3.63;1.80;;;26.10;35.20;;;;;;2257035;61;20358;-53
2021/08/18 10:27:48;0.00;0.00;0.62;0.00;0.00;0.62;2.67;2.40;;;26.10;35.20;;;;;;2257310;61;20391;-52
2021/08/18 10:30:45;0.00;0.00;0.62;0.00;0.00;0.62;2.20;2.00;;;26.00;35.20;;;;;;2256967;61;20367;-50
2021/08/18 10:34:01;0.00;0.00;0.62;0.00;0.00;0.62;2.30;1.67;;;26.10;35.20;;;;;;2257475;61;20438;-52
2021/08/18 10:37:02;0.00;0.00;0.62;0.00;0.00;0.62;2.97;2.00;;;26.10;35.20;;;;;;2257059;61;20367;-51
2021/08/18 10:39:52;0.00;0.00;0.62;0.00;0.00;0.62;2.40;2.20;;;26.10;35.20;;;;;;2257397;61;20798;-49
2021/08/18 10:42:33;0.00;0.00;0.62;0.00;0.00;0.62;3.23;1.70;;;26.10;35.20;;;;;;2257094;61;20386;-51
2021/08/18 10:45:37;0.00;0.00;0.62;0.00;0.00;0.62;2.63;1.93;;;26.10;35.10;;;;;;2256985;61;20370;-52
2021/08/18 10:49:01;0.00;0.00;0.62;0.00;0.00;0.62;3.83;2.33;;;26.10;35.10;;;;;;2257322;61;20382;-49
2021/08/18 10:51:50;0.00;0.00;0.62;0.00;0.00;0.62;2.30;1.87;;;26.10;35.10;;;;;;2256913;61;20422;-54
2021/08/18 10:54:45;0.00;0.00;0.62;0.00;0.00;0.62;2.60;2.10;;;26.10;35.00;;;;;;2257421;61;20392;-52
2021/08/18 10:57:41;0.00;0.00;0.62;0.00;0.00;0.62;3.10;1.73;;;26.10;35.00;;;;;;2257025;61;20402;-52